sensor_id;sensor_type;location;lat;lon;timestamp;P1;durP1;ratioP1;P2;durP2;ratioP2
31638;SDS011;18248;51.522;7.020;2022-11-03T00:02:51;17.42;;;3.08;;
31638;SDS011;18248;51.522;7.020;2022-11-03T00:05:50;17.33;;;3.00;;
31638;SDS011;18248;51.522;7.020;2022-11-03T00:09:05;16.38;;;2.63;;
31638;SDS011;18248;51.522;7.020;2022-11-03T00:12:05;16.13;;;2.72;;
31638;SDS011;18248;51.522;7.020;2022-11-03T00:15:05;24.23;;;3.50;;
31638;SDS011;18248;51.522;7.020;2022-11-03T00:18:04;16.25;;;2.88;;
31638;SDS011;18248;51.522;7.020;2022-11-03T00:21:03;10.43;;;2.35;;
31638;SDS011;18248;51.522;7.020;2022-11-03T00:24:09;20.30;;;2.85;;
31638;SDS011;18248;51.522;7.020;2022-11-03T00:27:08;18.77;;;2.92;;
31638;SDS011;18248;51.522;7.020;2022-11-03T00:30:07;11.13;;;2.25;;
31638;SDS011;18248;51.522;7.020;2022-11-03T00:33:06;16.15;;;2.60;;
31638;SDS011;18248;51.522;7.020;2022-11-03T00:36:04;12.30;;;3.05;;
31638;SDS011;18248;51.522;7.020;2022-11-03T00:39:04;21.15;;;3.13;;
31638;SDS011;18248;51.522;7.020;2022-11-03T00:42:04;15.95;;;2.88;;
31638;SDS011;18248;51.522;7.020;2022-11-03T00:45:04;18.10;;;3.00;;
31638;SDS011;18248;51.522;7.020;2022-11-03T00:48:03;23.30;;;3.65;;
31638;SDS011;18248;51.522;7.020;2022-11-03T00:51:21;16.85;;;3.05;;
31638;SDS011;18248;51.522;7.020;2022-11-03T00:54:25;20.88;;;3.28;;
31638;SDS011;18248;51.522;7.020;2022-11-03T00:57:24;14.65;;;2.42;;
31638;SDS011;18248;51.522;7.020;2022-11-03T01:00:22;13.73;;;2.55;;
31638;SDS011;18248;51.522;7.020;2022-11-03T01:03:22;18.02;;;3.30;;
31638;SDS011;18248;51.522;7.020;2022-11-03T01:06:20;14.48;;;2.80;;
31638;SDS011;18248;51.522;7.020;2022-11-03T01:09:38;16.77;;;3.10;;
31638;SDS011;18248;51.522;7.020;2022-11-03T01:12:38;12.23;;;2.33;;
31638;SDS011;18248;51.522;7.020;2022-11-03T01:15:36;21.13;;;3.47;;
31638;SDS011;18248;51.522;7.020;2022-11-03T01:18:34;17.50;;;3.15;;
31638;SDS011;18248;51.522;7.020;2022-11-03T01:21:33;15.30;;;2.90;;
31638;SDS011;18248;51.522;7.020;2022-11-03T01:24:33;17.83;;;2.92;;
31638;SDS011;18248;51.522;7.020;2022-11-03T01:27:33;19.27;;;3.22;;
31638;SDS011;18248;51.522;7.020;2022-11-03T01:30:31;21.45;;;3.20;;
31638;SDS011;18248;51.522;7.020;2022-11-03T01:33:30;11.68;;;2.70;;
31638;SDS011;18248;51.522;7.020;2022-11-03T01:36:29;21.58;;;3.33;;
31638;SDS011;18248;51.522;7.020;2022-11-03T01:39:28;12.50;;;2.75;;
31638;SDS011;18248;51.522;7.020;2022-11-03T01:42:27;17.38;;;3.33;;
31638;SDS011;18248;51.522;7.020;2022-11-03T01:45:25;14.40;;;2.42;;
31638;SDS011;18248;51.522;7.020;2022-11-03T01:48:24;16.55;;;3.05;;
31638;SDS011;18248;51.522;7.020;2022-11-03T01:51:22;13.70;;;3.22;;
31638;SDS011;18248;51.522;7.020;2022-11-03T01:54:24;16.40;;;2.80;;
31638;SDS011;18248;51.522;7.020;2022-11-03T01:57:26;13.45;;;2.55;;
31638;SDS011;18248;51.522;7.020;2022-11-03T02:00:29;23.25;;;4.03;;
31638;SDS011;18248;51.522;7.020;2022-11-03T02:03:30;27.27;;;3.75;;
31638;SDS011;18248;51.522;7.020;2022-11-03T02:06:32;17.17;;;3.22;;
31638;SDS011;18248;51.522;7.020;2022-11-03T02:09:33;22.98;;;3.13;;
31638;SDS011;18248;51.522;7.020;2022-11-03T02:12:31;15.95;;;2.65;;
31638;SDS011;18248;51.522;7.020;2022-11-03T02:15:31;15.00;;;3.15;;
31638;SDS011;18248;51.522;7.020;2022-11-03T02:18:31;15.77;;;2.90;;
31638;SDS011;18248;51.522;7.020;2022-11-03T02:28:45;12.73;;;2.80;;
31638;SDS011;18248;51.522;7.020;2022-11-03T02:31:48;15.43;;;3.13;;
31638;SDS011;18248;51.522;7.020;2022-11-03T02:38:14;13.50;;;3.03;;
31638;SDS011;18248;51.522;7.020;2022-11-03T02:41:17;18.80;;;2.95;;
31638;SDS011;18248;51.522;7.020;2022-11-03T02:44:18;20.20;;;2.95;;
31638;SDS011;18248;51.522;7.020;2022-11-03T02:47:17;14.65;;;3.13;;
31638;SDS011;18248;51.522;7.020;2022-11-03T02:50:17;19.60;;;3.75;;
31638;SDS011;18248;51.522;7.020;2022-11-03T02:53:19;16.65;;;3.22;;
31638;SDS011;18248;51.522;7.020;2022-11-03T02:56:18;21.48;;;3.40;;
31638;SDS011;18248;51.522;7.020;2022-11-03T02:59:21;11.88;;;2.60;;
31638;SDS011;18248;51.522;7.020;2022-11-03T03:02:25;20.20;;;3.92;;
31638;SDS011;18248;51.522;7.020;2022-11-03T03:05:31;18.60;;;3.92;;
31638;SDS011;18248;51.522;7.020;2022-11-03T03:08:33;17.73;;;3.03;;
31638;SDS011;18248;51.522;7.020;2022-11-03T03:11:35;12.52;;;2.45;;
31638;SDS011;18248;51.522;7.020;2022-11-03T03:17:44;20.05;;;3.08;;
31638;SDS011;18248;51.522;7.020;2022-11-03T03:24:12;14.57;;;2.85;;
31638;SDS011;18248;51.522;7.020;2022-11-03T03:27:18;15.60;;;3.25;;
31638;SDS011;18248;51.522;7.020;2022-11-03T03:30:20;13.82;;;2.83;;
31638;SDS011;18248;51.522;7.020;2022-11-03T03:33:19;13.90;;;2.30;;
31638;SDS011;18248;51.522;7.020;2022-11-03T03:36:19;16.02;;;2.72;;
31638;SDS011;18248;51.522;7.020;2022-11-03T03:39:20;14.65;;;2.65;;
31638;SDS011;18248;51.522;7.020;2022-11-03T03:42:21;18.40;;;3.63;;
31638;SDS011;18248;51.522;7.020;2022-11-03T03:45:24;19.17;;;3.08;;
31638;SDS011;18248;51.522;7.020;2022-11-03T03:48:23;15.73;;;3.15;;
31638;SDS011;18248;51.522;7.020;2022-11-03T03:51:22;14.40;;;3.25;;
31638;SDS011;18248;51.522;7.020;2022-11-03T03:54:24;9.75;;;2.38;;
31638;SDS011;18248;51.522;7.020;2022-11-03T03:57:23;15.88;;;2.72;;
31638;SDS011;18248;51.522;7.020;2022-11-03T04:00:24;15.93;;;2.78;;
31638;SDS011;18248;51.522;7.020;2022-11-03T04:03:23;19.33;;;3.05;;
31638;SDS011;18248;51.522;7.020;2022-11-03T04:06:23;14.57;;;3.05;;
31638;SDS011;18248;51.522;7.020;2022-11-03T04:09:21;11.10;;;2.88;;
31638;SDS011;18248;51.522;7.020;2022-11-03T04:12:21;15.70;;;2.42;;
31638;SDS011;18248;51.522;7.020;2022-11-03T04:15:38;17.35;;;2.83;;
31638;SDS011;18248;51.522;7.020;2022-11-03T04:18:49;12.88;;;2.20;;
31638;SDS011;18248;51.522;7.020;2022-11-03T04:22:06;13.48;;;2.80;;
31638;SDS011;18248;51.522;7.020;2022-11-03T04:25:16;16.50;;;3.38;;
31638;SDS011;18248;51.522;7.020;2022-11-03T04:28:15;15.73;;;3.08;;
31638;SDS011;18248;51.522;7.020;2022-11-03T04:31:14;14.35;;;2.90;;
31638;SDS011;18248;51.522;7.020;2022-11-03T04:34:15;15.10;;;2.53;;
31638;SDS011;18248;51.522;7.020;2022-11-03T04:37:15;12.98;;;2.80;;
31638;SDS011;18248;51.522;7.020;2022-11-03T04:40:15;12.93;;;3.00;;
31638;SDS011;18248;51.522;7.020;2022-11-03T04:43:14;11.60;;;2.78;;
31638;SDS011;18248;51.522;7.020;2022-11-03T04:46:17;15.13;;;2.83;;
31638;SDS011;18248;51.522;7.020;2022-11-03T04:49:25;16.25;;;3.03;;
31638;SDS011;18248;51.522;7.020;2022-11-03T04:52:24;14.82;;;3.30;;
31638;SDS011;18248;51.522;7.020;2022-11-03T04:55:22;13.25;;;2.63;;
31638;SDS011;18248;51.522;7.020;2022-11-03T04:58:26;17.85;;;2.75;;
31638;SDS011;18248;51.522;7.020;2022-11-03T05:01:29;13.88;;;2.85;;
31638;SDS011;18248;51.522;7.020;2022-11-03T05:04:27;13.45;;;2.72;;
31638;SDS011;18248;51.522;7.020;2022-11-03T05:07:28;17.45;;;3.28;;
31638;SDS011;18248;51.522;7.020;2022-11-03T05:10:31;18.13;;;2.95;;
31638;SDS011;18248;51.522;7.020;2022-11-03T05:13:29;15.80;;;3.40;;
31638;SDS011;18248;51.522;7.020;2022-11-03T05:16:29;13.38;;;2.85;;
31638;SDS011;18248;51.522;7.020;2022-11-03T05:19:32;22.92;;;3.00;;
31638;SDS011;18248;51.522;7.020;2022-11-03T05:22:34;15.32;;;2.92;;
31638;SDS011;18248;51.522;7.020;2022-11-03T05:25:36;20.60;;;4.00;;
31638;SDS011;18248;51.522;7.020;2022-11-03T05:28:38;16.95;;;2.85;;
31638;SDS011;18248;51.522;7.020;2022-11-03T05:31:41;16.13;;;2.65;;
31638;SDS011;18248;51.522;7.020;2022-11-03T05:34:41;15.48;;;3.35;;
31638;SDS011;18248;51.522;7.020;2022-11-03T05:37:43;15.57;;;3.15;;
31638;SDS011;18248;51.522;7.020;2022-11-03T05:40:44;14.90;;;3.10;;
31638;SDS011;18248;51.522;7.020;2022-11-03T05:43:59;14.73;;;2.73;;
31638;SDS011;18248;51.522;7.020;2022-11-03T05:47:27;16.90;;;3.38;;
31638;SDS011;18248;51.522;7.020;2022-11-03T05:50:33;14.30;;;3.58;;
31638;SDS011;18248;51.522;7.020;2022-11-03T05:53:35;20.98;;;3.35;;
31638;SDS011;18248;51.522;7.020;2022-11-03T05:56:36;17.10;;;2.78;;
31638;SDS011;18248;51.522;7.020;2022-11-03T05:59:34;14.82;;;3.28;;
31638;SDS011;18248;51.522;7.020;2022-11-03T06:02:36;13.50;;;2.72;;
31638;SDS011;18248;51.522;7.020;2022-11-03T06:08:35;16.63;;;3.10;;
31638;SDS011;18248;51.522;7.020;2022-11-03T06:11:34;17.02;;;3.20;;
31638;SDS011;18248;51.522;7.020;2022-11-03T06:14:34;12.65;;;3.08;;
31638;SDS011;18248;51.522;7.020;2022-11-03T06:17:33;14.43;;;2.47;;
31638;SDS011;18248;51.522;7.020;2022-11-03T06:20:34;19.05;;;3.10;;
31638;SDS011;18248;51.522;7.020;2022-11-03T06:23:33;16.13;;;3.03;;
31638;SDS011;18248;51.522;7.020;2022-11-03T06:26:33;12.95;;;2.95;;
31638;SDS011;18248;51.522;7.020;2022-11-03T06:29:31;16.27;;;3.25;;
31638;SDS011;18248;51.522;7.020;2022-11-03T06:32:31;17.15;;;2.47;;
31638;SDS011;18248;51.522;7.020;2022-11-03T06:35:30;12.63;;;2.88;;
31638;SDS011;18248;51.522;7.020;2022-11-03T06:38:29;16.15;;;3.30;;
31638;SDS011;18248;51.522;7.020;2022-11-03T06:41:32;13.55;;;3.00;;
31638;SDS011;18248;51.522;7.020;2022-11-03T06:44:35;18.80;;;2.70;;
31638;SDS011;18248;51.522;7.020;2022-11-03T06:47:37;8.75;;;2.08;;
31638;SDS011;18248;51.522;7.020;2022-11-03T06:50:37;23.27;;;3.45;;
31638;SDS011;18248;51.522;7.020;2022-11-03T06:53:37;18.77;;;3.05;;
31638;SDS011;18248;51.522;7.020;2022-11-03T06:56:36;11.85;;;2.60;;
31638;SDS011;18248;51.522;7.020;2022-11-03T06:59:34;14.70;;;2.95;;
31638;SDS011;18248;51.522;7.020;2022-11-03T07:05:49;16.65;;;2.97;;
31638;SDS011;18248;51.522;7.020;2022-11-03T07:08:48;14.30;;;3.40;;
31638;SDS011;18248;51.522;7.020;2022-11-03T07:11:51;17.08;;;3.15;;
31638;SDS011;18248;51.522;7.020;2022-11-03T07:17:54;15.27;;;3.40;;
31638;SDS011;18248;51.522;7.020;2022-11-03T07:20:54;13.48;;;2.63;;
31638;SDS011;18248;51.522;7.020;2022-11-03T07:23:54;15.90;;;2.88;;
31638;SDS011;18248;51.522;7.020;2022-11-03T07:30:32;14.45;;;2.75;;
31638;SDS011;18248;51.522;7.020;2022-11-03T07:33:33;17.40;;;3.15;;
31638;SDS011;18248;51.522;7.020;2022-11-03T07:36:31;19.52;;;3.55;;
31638;SDS011;18248;51.522;7.020;2022-11-03T07:39:33;20.92;;;3.70;;
31638;SDS011;18248;51.522;7.020;2022-11-03T07:42:35;12.65;;;3.08;;
31638;SDS011;18248;51.522;7.020;2022-11-03T07:48:53;19.25;;;2.90;;
31638;SDS011;18248;51.522;7.020;2022-11-03T07:51:54;16.63;;;3.05;;
31638;SDS011;18248;51.522;7.020;2022-11-03T07:54:55;19.88;;;3.58;;
31638;SDS011;18248;51.522;7.020;2022-11-03T07:57:56;14.77;;;3.05;;
31638;SDS011;18248;51.522;7.020;2022-11-03T08:00:56;13.00;;;2.70;;
31638;SDS011;18248;51.522;7.020;2022-11-03T08:03:58;12.43;;;2.58;;
31638;SDS011;18248;51.522;7.020;2022-11-03T08:07:01;13.40;;;2.50;;
31638;SDS011;18248;51.522;7.020;2022-11-03T08:09:59;13.82;;;2.72;;
31638;SDS011;18248;51.522;7.020;2022-11-03T08:12:58;20.83;;;3.15;;
31638;SDS011;18248;51.522;7.020;2022-11-03T08:15:57;20.05;;;2.80;;
31638;SDS011;18248;51.522;7.020;2022-11-03T08:18:56;11.88;;;3.08;;
31638;SDS011;18248;51.522;7.020;2022-11-03T08:21:54;16.52;;;2.70;;
31638;SDS011;18248;51.522;7.020;2022-11-03T08:24:53;17.58;;;3.10;;
31638;SDS011;18248;51.522;7.020;2022-11-03T08:27:51;18.90;;;2.95;;
31638;SDS011;18248;51.522;7.020;2022-11-03T08:30:50;13.85;;;2.63;;
31638;SDS011;18248;51.522;7.020;2022-11-03T08:33:48;11.15;;;2.65;;
31638;SDS011;18248;51.522;7.020;2022-11-03T08:36:47;12.95;;;2.17;;
31638;SDS011;18248;51.522;7.020;2022-11-03T08:39:45;14.38;;;2.70;;
31638;SDS011;18248;51.522;7.020;2022-11-03T08:42:44;10.32;;;2.42;;
31638;SDS011;18248;51.522;7.020;2022-11-03T08:45:42;14.27;;;2.70;;
31638;SDS011;18248;51.522;7.020;2022-11-03T08:48:41;13.80;;;3.17;;
31638;SDS011;18248;51.522;7.020;2022-11-03T08:51:39;17.38;;;3.22;;
31638;SDS011;18248;51.522;7.020;2022-11-03T08:54:38;16.73;;;2.78;;
31638;SDS011;18248;51.522;7.020;2022-11-03T08:57:36;11.00;;;2.45;;
31638;SDS011;18248;51.522;7.020;2022-11-03T09:00:35;17.75;;;2.95;;
31638;SDS011;18248;51.522;7.020;2022-11-03T09:03:34;16.27;;;2.63;;
31638;SDS011;18248;51.522;7.020;2022-11-03T09:06:32;10.85;;;2.88;;
31638;SDS011;18248;51.522;7.020;2022-11-03T09:09:31;12.43;;;2.30;;
31638;SDS011;18248;51.522;7.020;2022-11-03T09:12:29;17.63;;;3.05;;
31638;SDS011;18248;51.522;7.020;2022-11-03T09:15:28;16.63;;;2.92;;
31638;SDS011;18248;51.522;7.020;2022-11-03T09:18:27;11.13;;;2.58;;
31638;SDS011;18248;51.522;7.020;2022-11-03T09:21:27;13.63;;;2.40;;
31638;SDS011;18248;51.522;7.020;2022-11-03T09:24:27;10.00;;;2.45;;
31638;SDS011;18248;51.522;7.020;2022-11-03T09:27:25;9.18;;;1.92;;
31638;SDS011;18248;51.522;7.020;2022-11-03T09:30:24;8.35;;;2.22;;
31638;SDS011;18248;51.522;7.020;2022-11-03T09:33:22;9.63;;;1.95;;
31638;SDS011;18248;51.522;7.020;2022-11-03T09:36:21;13.00;;;2.63;;
31638;SDS011;18248;51.522;7.020;2022-11-03T09:39:19;10.52;;;2.38;;
31638;SDS011;18248;51.522;7.020;2022-11-03T09:42:18;11.32;;;2.50;;
31638;SDS011;18248;51.522;7.020;2022-11-03T09:45:17;11.80;;;2.50;;
31638;SDS011;18248;51.522;7.020;2022-11-03T09:48:15;14.23;;;2.38;;
31638;SDS011;18248;51.522;7.020;2022-11-03T09:51:16;10.93;;;2.03;;
31638;SDS011;18248;51.522;7.020;2022-11-03T09:54:17;12.68;;;2.53;;
31638;SDS011;18248;51.522;7.020;2022-11-03T09:57:16;11.80;;;2.30;;
31638;SDS011;18248;51.522;7.020;2022-11-03T10:00:15;13.93;;;2.60;;
31638;SDS011;18248;51.522;7.020;2022-11-03T10:03:19;11.40;;;2.30;;
31638;SDS011;18248;51.522;7.020;2022-11-03T10:06:18;12.50;;;2.58;;
31638;SDS011;18248;51.522;7.020;2022-11-03T10:09:18;10.07;;;2.30;;
31638;SDS011;18248;51.522;7.020;2022-11-03T10:12:17;11.88;;;2.38;;
31638;SDS011;18248;51.522;7.020;2022-11-03T10:15:18;8.05;;;2.03;;
31638;SDS011;18248;51.522;7.020;2022-11-03T10:18:18;10.95;;;2.25;;
31638;SDS011;18248;51.522;7.020;2022-11-03T10:21:18;8.45;;;2.05;;
31638;SDS011;18248;51.522;7.020;2022-11-03T10:24:20;10.32;;;2.10;;
31638;SDS011;18248;51.522;7.020;2022-11-03T10:27:25;12.32;;;1.88;;
31638;SDS011;18248;51.522;7.020;2022-11-03T10:30:24;8.20;;;2.13;;
31638;SDS011;18248;51.522;7.020;2022-11-03T10:33:26;8.30;;;2.00;;
31638;SDS011;18248;51.522;7.020;2022-11-03T10:36:26;11.02;;;2.15;;
31638;SDS011;18248;51.522;7.020;2022-11-03T10:39:29;10.85;;;2.55;;
31638;SDS011;18248;51.522;7.020;2022-11-03T10:42:28;6.85;;;1.75;;
31638;SDS011;18248;51.522;7.020;2022-11-03T10:45:27;9.85;;;1.83;;
31638;SDS011;18248;51.522;7.020;2022-11-03T10:48:28;14.02;;;2.13;;
31638;SDS011;18248;51.522;7.020;2022-11-03T10:51:27;8.32;;;1.90;;
31638;SDS011;18248;51.522;7.020;2022-11-03T10:54:26;7.88;;;2.10;;
31638;SDS011;18248;51.522;7.020;2022-11-03T10:57:25;9.07;;;1.80;;
31638;SDS011;18248;51.522;7.020;2022-11-03T11:00:25;9.38;;;2.05;;
31638;SDS011;18248;51.522;7.020;2022-11-03T11:03:24;8.65;;;2.33;;
31638;SDS011;18248;51.522;7.020;2022-11-03T11:06:28;12.93;;;1.80;;
31638;SDS011;18248;51.522;7.020;2022-11-03T11:09:28;8.27;;;1.98;;
31638;SDS011;18248;51.522;7.020;2022-11-03T11:12:29;8.20;;;2.00;;
31638;SDS011;18248;51.522;7.020;2022-11-03T11:15:41;6.93;;;1.95;;
31638;SDS011;18248;51.522;7.020;2022-11-03T11:40:12;7.82;;;1.50;;
31638;SDS011;18248;51.522;7.020;2022-11-03T11:49:21;10.43;;;1.58;;
31638;SDS011;18248;51.522;7.020;2022-11-03T11:52:19;8.45;;;1.80;;
31638;SDS011;18248;51.522;7.020;2022-11-03T11:55:25;6.63;;;1.40;;
31638;SDS011;18248;51.522;7.020;2022-11-03T12:01:41;15.48;;;2.03;;
31638;SDS011;18248;51.522;7.020;2022-11-03T12:04:44;8.35;;;1.80;;
31638;SDS011;18248;51.522;7.020;2022-11-03T12:07:44;6.53;;;1.63;;
31638;SDS011;18248;51.522;7.020;2022-11-03T12:10:50;6.75;;;2.22;;
31638;SDS011;18248;51.522;7.020;2022-11-03T12:13:50;7.30;;;2.00;;
31638;SDS011;18248;51.522;7.020;2022-11-03T12:16:49;5.43;;;1.60;;
31638;SDS011;18248;51.522;7.020;2022-11-03T12:19:49;8.13;;;1.73;;
31638;SDS011;18248;51.522;7.020;2022-11-03T12:22:50;5.13;;;1.63;;
31638;SDS011;18248;51.522;7.020;2022-11-03T12:25:49;8.23;;;1.85;;
31638;SDS011;18248;51.522;7.020;2022-11-03T12:28:47;7.55;;;1.60;;
31638;SDS011;18248;51.522;7.020;2022-11-03T12:31:46;7.55;;;1.60;;
31638;SDS011;18248;51.522;7.020;2022-11-03T12:34:45;11.63;;;2.13;;
31638;SDS011;18248;51.522;7.020;2022-11-03T12:37:44;6.03;;;1.30;;
31638;SDS011;18248;51.522;7.020;2022-11-03T12:40:43;6.45;;;1.33;;
31638;SDS011;18248;51.522;7.020;2022-11-03T12:43:41;11.02;;;1.70;;
31638;SDS011;18248;51.522;7.020;2022-11-03T12:46:40;9.77;;;1.98;;
31638;SDS011;18248;51.522;7.020;2022-11-03T12:49:38;8.35;;;1.50;;
31638;SDS011;18248;51.522;7.020;2022-11-03T12:52:37;7.22;;;1.40;;
31638;SDS011;18248;51.522;7.020;2022-11-03T12:55:36;5.78;;;1.60;;
31638;SDS011;18248;51.522;7.020;2022-11-03T12:58:35;6.85;;;1.40;;
31638;SDS011;18248;51.522;7.020;2022-11-03T13:01:33;12.88;;;1.55;;
31638;SDS011;18248;51.522;7.020;2022-11-03T13:04:32;8.68;;;2.50;;
31638;SDS011;18248;51.522;7.020;2022-11-03T13:07:30;8.30;;;1.90;;
31638;SDS011;18248;51.522;7.020;2022-11-03T13:10:29;6.80;;;1.60;;
31638;SDS011;18248;51.522;7.020;2022-11-03T13:13:28;5.63;;;1.35;;
31638;SDS011;18248;51.522;7.020;2022-11-03T13:16:26;9.70;;;1.50;;
31638;SDS011;18248;51.522;7.020;2022-11-03T13:19:25;8.43;;;1.55;;
31638;SDS011;18248;51.522;7.020;2022-11-03T13:22:23;4.95;;;1.45;;
31638;SDS011;18248;51.522;7.020;2022-11-03T13:25:22;6.07;;;1.80;;
31638;SDS011;18248;51.522;7.020;2022-11-03T13:28:22;5.00;;;1.30;;
31638;SDS011;18248;51.522;7.020;2022-11-03T13:31:21;7.15;;;1.45;;
31638;SDS011;18248;51.522;7.020;2022-11-03T13:34:19;6.72;;;1.73;;
31638;SDS011;18248;51.522;7.020;2022-11-03T13:37:18;3.80;;;1.50;;
31638;SDS011;18248;51.522;7.020;2022-11-03T13:40:16;9.88;;;2.08;;
31638;SDS011;18248;51.522;7.020;2022-11-03T13:43:15;4.97;;;1.65;;
31638;SDS011;18248;51.522;7.020;2022-11-03T13:46:14;7.50;;;1.65;;
31638;SDS011;18248;51.522;7.020;2022-11-03T13:49:14;7.55;;;1.90;;
31638;SDS011;18248;51.522;7.020;2022-11-03T13:52:13;3.95;;;1.48;;
31638;SDS011;18248;51.522;7.020;2022-11-03T13:55:12;10.85;;;2.25;;
31638;SDS011;18248;51.522;7.020;2022-11-03T13:58:10;8.75;;;1.88;;
31638;SDS011;18248;51.522;7.020;2022-11-03T14:01:11;9.02;;;2.03;;
31638;SDS011;18248;51.522;7.020;2022-11-03T14:04:10;13.40;;;2.30;;
31638;SDS011;18248;51.522;7.020;2022-11-03T14:07:10;4.88;;;1.85;;
31638;SDS011;18248;51.522;7.020;2022-11-03T14:10:09;6.22;;;1.92;;
31638;SDS011;18248;51.522;7.020;2022-11-03T14:13:07;11.45;;;2.00;;
31638;SDS011;18248;51.522;7.020;2022-11-03T14:16:06;6.28;;;1.80;;
31638;SDS011;18248;51.522;7.020;2022-11-03T14:19:04;6.47;;;2.10;;
31638;SDS011;18248;51.522;7.020;2022-11-03T14:22:03;9.02;;;1.73;;
31638;SDS011;18248;51.522;7.020;2022-11-03T14:25:02;11.50;;;2.00;;
31638;SDS011;18248;51.522;7.020;2022-11-03T14:28:01;8.52;;;2.03;;
31638;SDS011;18248;51.522;7.020;2022-11-03T14:30:59;8.52;;;2.35;;
31638;SDS011;18248;51.522;7.020;2022-11-03T14:34:00;7.70;;;2.20;;
31638;SDS011;18248;51.522;7.020;2022-11-03T14:36:59;16.60;;;2.25;;
31638;SDS011;18248;51.522;7.020;2022-11-03T14:39:58;9.27;;;2.22;;
31638;SDS011;18248;51.522;7.020;2022-11-03T14:42:56;6.35;;;1.45;;
31638;SDS011;18248;51.522;7.020;2022-11-03T14:45:55;7.38;;;1.95;;
31638;SDS011;18248;51.522;7.020;2022-11-03T14:48:53;16.77;;;1.95;;
31638;SDS011;18248;51.522;7.020;2022-11-03T14:51:52;10.02;;;3.00;;
31638;SDS011;18248;51.522;7.020;2022-11-03T14:54:53;9.35;;;2.40;;
31638;SDS011;18248;51.522;7.020;2022-11-03T14:57:52;8.73;;;2.25;;
31638;SDS011;18248;51.522;7.020;2022-11-03T15:00:51;7.68;;;1.90;;
31638;SDS011;18248;51.522;7.020;2022-11-03T15:03:50;10.73;;;2.35;;
31638;SDS011;18248;51.522;7.020;2022-11-03T15:06:48;9.43;;;2.00;;
31638;SDS011;18248;51.522;7.020;2022-11-03T15:09:47;18.27;;;2.60;;
31638;SDS011;18248;51.522;7.020;2022-11-03T15:12:45;8.07;;;2.28;;
31638;SDS011;18248;51.522;7.020;2022-11-03T15:15:44;9.52;;;1.95;;
31638;SDS011;18248;51.522;7.020;2022-11-03T15:18:43;8.57;;;2.13;;
31638;SDS011;18248;51.522;7.020;2022-11-03T15:21:42;6.13;;;2.17;;
31638;SDS011;18248;51.522;7.020;2022-11-03T15:24:40;10.68;;;1.92;;
31638;SDS011;18248;51.522;7.020;2022-11-03T15:27:40;5.57;;;1.90;;
31638;SDS011;18248;51.522;7.020;2022-11-03T15:30:38;9.20;;;2.00;;
31638;SDS011;18248;51.522;7.020;2022-11-03T15:33:37;7.25;;;1.88;;
31638;SDS011;18248;51.522;7.020;2022-11-03T15:36:36;6.20;;;1.88;;
31638;SDS011;18248;51.522;7.020;2022-11-03T15:39:34;7.97;;;1.98;;
31638;SDS011;18248;51.522;7.020;2022-11-03T15:42:33;7.88;;;2.95;;
31638;SDS011;18248;51.522;7.020;2022-11-03T15:45:31;7.65;;;2.20;;
31638;SDS011;18248;51.522;7.020;2022-11-03T15:48:30;8.38;;;3.45;;
31638;SDS011;18248;51.522;7.020;2022-11-03T15:51:29;11.80;;;2.92;;
31638;SDS011;18248;51.522;7.020;2022-11-03T15:54:27;11.52;;;2.63;;
31638;SDS011;18248;51.522;7.020;2022-11-03T15:57:27;11.88;;;2.50;;
31638;SDS011;18248;51.522;7.020;2022-11-03T16:00:26;6.20;;;2.42;;
31638;SDS011;18248;51.522;7.020;2022-11-03T16:03:24;6.35;;;2.45;;
31638;SDS011;18248;51.522;7.020;2022-11-03T16:06:23;10.27;;;2.78;;
31638;SDS011;18248;51.522;7.020;2022-11-03T16:09:21;7.75;;;2.50;;
31638;SDS011;18248;51.522;7.020;2022-11-03T16:12:20;8.70;;;2.50;;
31638;SDS011;18248;51.522;7.020;2022-11-03T16:15:20;11.00;;;2.97;;
31638;SDS011;18248;51.522;7.020;2022-11-03T16:18:19;9.77;;;2.60;;
31638;SDS011;18248;51.522;7.020;2022-11-03T16:21:18;15.63;;;2.80;;
31638;SDS011;18248;51.522;7.020;2022-11-03T16:24:16;9.02;;;3.20;;
31638;SDS011;18248;51.522;7.020;2022-11-03T16:27:17;9.93;;;2.83;;
31638;SDS011;18248;51.522;7.020;2022-11-03T16:30:16;10.10;;;2.92;;
31638;SDS011;18248;51.522;7.020;2022-11-03T16:33:14;10.30;;;3.00;;
31638;SDS011;18248;51.522;7.020;2022-11-03T16:36:13;6.25;;;2.63;;
31638;SDS011;18248;51.522;7.020;2022-11-03T16:39:11;9.98;;;2.78;;
31638;SDS011;18248;51.522;7.020;2022-11-03T16:42:10;13.68;;;2.58;;
31638;SDS011;18248;51.522;7.020;2022-11-03T16:45:18;12.30;;;3.10;;
31638;SDS011;18248;51.522;7.020;2022-11-03T16:48:19;11.82;;;3.28;;
31638;SDS011;18248;51.522;7.020;2022-11-03T16:51:17;8.35;;;3.28;;
31638;SDS011;18248;51.522;7.020;2022-11-03T16:54:16;9.02;;;2.83;;
31638;SDS011;18248;51.522;7.020;2022-11-03T16:57:14;8.68;;;2.80;;
31638;SDS011;18248;51.522;7.020;2022-11-03T17:00:16;9.63;;;3.15;;
31638;SDS011;18248;51.522;7.020;2022-11-03T17:03:16;5.55;;;2.42;;
31638;SDS011;18248;51.522;7.020;2022-11-03T17:06:16;11.48;;;3.45;;
31638;SDS011;18248;51.522;7.020;2022-11-03T17:09:14;11.75;;;3.25;;
31638;SDS011;18248;51.522;7.020;2022-11-03T17:12:13;8.40;;;2.78;;
31638;SDS011;18248;51.522;7.020;2022-11-03T17:15:11;5.78;;;2.42;;
31638;SDS011;18248;51.522;7.020;2022-11-03T17:18:10;14.32;;;3.35;;
31638;SDS011;18248;51.522;7.020;2022-11-03T17:21:10;8.18;;;3.03;;
31638;SDS011;18248;51.522;7.020;2022-11-03T17:24:09;10.15;;;3.30;;
31638;SDS011;18248;51.522;7.020;2022-11-03T17:27:15;9.63;;;2.97;;
31638;SDS011;18248;51.522;7.020;2022-11-03T17:30:23;11.45;;;3.92;;
31638;SDS011;18248;51.522;7.020;2022-11-03T17:33:23;10.38;;;3.25;;
31638;SDS011;18248;51.522;7.020;2022-11-03T17:36:21;9.07;;;3.20;;
31638;SDS011;18248;51.522;7.020;2022-11-03T17:39:24;7.35;;;3.05;;
31638;SDS011;18248;51.522;7.020;2022-11-03T17:42:27;11.10;;;3.20;;
31638;SDS011;18248;51.522;7.020;2022-11-03T17:45:25;7.70;;;2.90;;
31638;SDS011;18248;51.522;7.020;2022-11-03T17:48:26;8.40;;;3.35;;
31638;SDS011;18248;51.522;7.020;2022-11-03T17:51:26;10.82;;;3.30;;
31638;SDS011;18248;51.522;7.020;2022-11-03T17:54:24;11.95;;;3.38;;
31638;SDS011;18248;51.522;7.020;2022-11-03T17:57:27;9.77;;;3.25;;
31638;SDS011;18248;51.522;7.020;2022-11-03T18:00:25;6.45;;;3.80;;
31638;SDS011;18248;51.522;7.020;2022-11-03T18:03:25;10.57;;;3.50;;
31638;SDS011;18248;51.522;7.020;2022-11-03T18:06:24;8.85;;;3.28;;
31638;SDS011;18248;51.522;7.020;2022-11-03T18:09:23;8.82;;;3.17;;
31638;SDS011;18248;51.522;7.020;2022-11-03T18:12:22;9.73;;;4.20;;
31638;SDS011;18248;51.522;7.020;2022-11-03T18:15:51;15.48;;;5.75;;
31638;SDS011;18248;51.522;7.020;2022-11-03T18:18:53;10.00;;;3.58;;
31638;SDS011;18248;51.522;7.020;2022-11-03T18:21:53;13.30;;;4.10;;
31638;SDS011;18248;51.522;7.020;2022-11-03T18:24:51;9.55;;;3.78;;
31638;SDS011;18248;51.522;7.020;2022-11-03T18:27:50;7.75;;;3.35;;
31638;SDS011;18248;51.522;7.020;2022-11-03T18:30:49;6.32;;;3.15;;
31638;SDS011;18248;51.522;7.020;2022-11-03T18:33:50;8.02;;;3.33;;
31638;SDS011;18248;51.522;7.020;2022-11-03T18:36:50;7.35;;;3.60;;
31638;SDS011;18248;51.522;7.020;2022-11-03T18:39:49;12.30;;;5.05;;
31638;SDS011;18248;51.522;7.020;2022-11-03T18:42:48;41.17;;;16.42;;
31638;SDS011;18248;51.522;7.020;2022-11-03T18:45:46;91.40;;;37.67;;
31638;SDS011;18248;51.522;7.020;2022-11-03T18:48:45;62.03;;;25.77;;
31638;SDS011;18248;51.522;7.020;2022-11-03T18:51:46;49.92;;;21.15;;
31638;SDS011;18248;51.522;7.020;2022-11-03T18:54:47;41.23;;;17.90;;
31638;SDS011;18248;51.522;7.020;2022-11-03T18:57:50;55.08;;;26.23;;
31638;SDS011;18248;51.522;7.020;2022-11-03T19:00:50;13.55;;;7.18;;